Time;durP1;ratioP1;P1;durP2;ratioP2;P2;SDS_P1;SDS_P2;PMS_P1;PMS_P2;Temp;Humidity;BMP_temperature;BMP_pressure;BME280_temperature;BME280_humidity;BME280_pressure;Samples;Min_cycle;Max_cycle;Signal;HPM_P1;HPM_P2
2020/12/21 00:01:16;;;;;;;25.57;21.07;;;6.50;99.90;;;;;;4994149;28;20216;-76
2020/12/21 00:03:44;;;;;;;58.20;26.43;;;6.50;99.90;;;;;;4994183;28;20699;-78
2020/12/21 00:06:11;;;;;;;61.47;26.73;;;6.50;99.90;;;;;;4993860;28;20212;-77
2020/12/21 00:08:38;;;;;;;53.80;26.50;;;6.40;99.90;;;;;;4993705;28;20220;-73
2020/12/21 00:11:05;;;;;;;38.83;24.60;;;6.40;99.90;;;;;;4993740;28;20240;-77
2020/12/21 00:13:31;;;;;;;28.10;22.17;;;6.50;99.90;;;;;;4994243;28;20244;-77
2020/12/21 00:15:58;;;;;;;31.27;23.83;;;6.60;99.90;;;;;;4993448;28;20233;-73
2020/12/21 00:18:25;;;;;;;26.97;21.77;;;6.60;99.90;;;;;;4994399;28;20239;-78
2020/12/21 00:20:51;;;;;;;29.40;22.57;;;6.70;99.90;;;;;;4994121;28;20211;-75
2020/12/21 00:23:18;;;;;;;24.73;20.57;;;6.80;99.90;;;;;;4993224;28;20217;-74
2020/12/21 00:25:45;;;;;;;22.57;20.10;;;6.90;99.90;;;;;;4994012;28;20635;-77
2020/12/21 00:28:11;;;;;;;26.47;21.70;;;7.00;99.90;;;;;;4993415;28;20202;-77
2020/12/21 00:30:38;;;;;;;25.17;20.17;;;7.00;99.90;;;;;;4993800;28;20232;-76
2020/12/21 00:33:05;;;;;;;22.43;20.03;;;7.00;99.90;;;;;;4992961;28;20624;-76
2020/12/21 00:35:31;;;;;;;22.50;19.47;;;7.00;99.90;;;;;;4993548;28;20605;-77
2020/12/21 00:37:59;;;;;;;21.13;17.80;;;7.20;99.90;;;;;;4992995;28;20599;-75
2020/12/21 00:40:26;;;;;;;26.67;18.80;;;7.20;99.90;;;;;;4993491;28;20279;-74
2020/12/21 00:42:53;;;;;;;27.20;19.70;;;7.20;99.90;;;;;;4993972;28;20355;-77
2020/12/21 00:45:20;;;;;;;43.73;23.67;;;7.20;99.90;;;;;;4993398;28;20267;-76
2020/12/21 00:47:46;;;;;;;88.27;25.20;;;7.10;99.90;;;;;;4993357;28;20647;-74
2020/12/21 00:50:13;;;;;;;85.70;28.23;;;7.00;99.90;;;;;;4992673;28;20209;-75
2020/12/21 00:52:39;;;;;;;66.03;24.57;;;6.80;99.90;;;;;;4993161;28;20201;-77
2020/12/21 00:55:06;;;;;;;65.83;27.00;;;6.70;99.90;;;;;;4992614;28;20270;-73
2020/12/21 00:57:33;;;;;;;64.60;29.53;;;6.60;99.90;;;;;;4992900;28;20205;-73
2020/12/21 01:00:01;;;;;;;47.40;23.70;;;6.50;99.90;;;;;;4993141;28;20239;-73
2020/12/21 01:02:27;;;;;;;45.60;21.87;;;6.50;99.90;;;;;;4993116;28;20290;-74
2020/12/21 01:04:54;;;;;;;73.30;24.57;;;6.50;99.90;;;;;;4993433;28;20213;-80
2020/12/21 01:07:20;;;;;;;65.23;23.93;;;6.50;99.90;;;;;;4992945;28;20216;-77
2020/12/21 01:09:47;;;;;;;72.33;25.20;;;6.50;99.90;;;;;;4992895;28;20212;-76
2020/12/21 01:12:14;;;;;;;32.03;20.07;;;6.50;99.90;;;;;;4991959;28;20220;-76
2020/12/21 01:14:40;;;;;;;55.10;26.87;;;6.50;99.90;;;;;;4992919;28;20295;-77
2020/12/21 01:17:08;;;;;;;38.07;22.07;;;6.30;99.90;;;;;;4992408;28;20701;-77
2020/12/21 01:19:35;;;;;;;34.40;20.20;;;6.20;99.90;;;;;;4992443;28;20213;-77
2020/12/21 01:22:01;;;;;;;43.17;21.40;;;6.20;99.90;;;;;;4992240;28;20205;-76
2020/12/21 01:24:28;;;;;;;28.20;16.50;;;6.20;99.90;;;;;;4992736;28;20201;-75
2020/12/21 01:26:54;;;;;;;21.80;15.63;;;6.20;99.90;;;;;;4992860;28;20696;-76
2020/12/21 01:29:21;;;;;;;21.33;13.97;;;6.20;99.90;;;;;;4992418;28;20209;-77
2020/12/21 01:31:47;;;;;;;19.37;14.00;;;6.30;99.90;;;;;;4992541;28;20209;-76
2020/12/21 01:34:15;;;;;;;16.73;12.10;;;6.40;99.90;;;;;;4991915;28;20209;-76
2020/12/21 01:36:41;;;;;;;18.27;14.13;;;6.40;99.90;;;;;;4992190;28;20334;-76
2020/12/21 01:39:09;;;;;;;20.60;12.13;;;6.40;99.90;;;;;;4991941;28;20232;-76
2020/12/21 01:41:35;;;;;;;17.70;13.63;;;6.40;99.90;;;;;;4992448;28;20209;-76
2020/12/21 01:44:02;;;;;;;18.87;12.33;;;6.40;99.90;;;;;;4991862;28;20208;-76
2020/12/21 01:46:28;;;;;;;20.07;12.57;;;6.40;99.90;;;;;;4992233;28;20220;-76
2020/12/21 01:48:55;;;;;;;19.23;11.97;;;6.40;99.90;;;;;;4992159;28;20204;-76
2020/12/21 01:51:24;;;;;;;22.43;12.20;;;6.30;99.90;;;;;;4992543;28;20220;-76
2020/12/21 01:53:51;;;;;;;20.50;11.23;;;6.30;99.90;;;;;;4992433;28;20204;-77
2020/12/21 01:56:19;;;;;;;29.50;11.13;;;6.20;99.90;;;;;;4991594;28;20617;-77
2020/12/21 01:58:46;;;;;;;20.70;10.87;;;6.20;99.90;;;;;;4992194;28;20213;-76
2020/12/21 02:01:15;;;;;;;31.47;11.33;;;6.10;99.90;;;;;;4991793;28;20589;-76
2020/12/21 02:03:42;;;;;;;26.17;11.07;;;6.10;99.90;;;;;;4991857;28;20209;-74
2020/12/21 02:06:09;;;;;;;45.33;14.80;;;6.20;99.90;;;;;;4991678;28;20236;-74
2020/12/21 02:08:37;;;;;;;46.10;12.23;;;6.10;99.90;;;;;;4992080;28;20209;-79
2020/12/21 02:11:04;;;;;;;39.80;13.60;;;6.10;99.90;;;;;;4991179;28;20626;-79
2020/12/21 02:13:30;;;;;;;26.10;11.30;;;6.10;99.90;;;;;;4992026;28;20251;-77
2020/12/21 02:15:57;;;;;;;25.70;9.43;;;6.10;99.90;;;;;;4990801;28;20228;-75
2020/12/21 02:18:24;;;;;;;21.13;11.23;;;6.10;99.90;;;;;;4992331;28;20212;-79
2020/12/21 02:20:51;;;;;;;22.57;11.27;;;6.00;99.90;;;;;;4991630;28;20213;-78
2020/12/21 02:23:18;;;;;;;17.00;9.20;;;5.90;99.90;;;;;;4990991;28;20216;-78
2020/12/21 02:25:44;;;;;;;20.27;10.57;;;5.90;99.90;;;;;;4991948;28;20213;-78
2020/12/21 02:28:11;;;;;;;15.83;9.90;;;5.90;99.90;;;;;;4991062;28;20233;-76
2020/12/21 02:30:37;;;;;;;14.77;9.97;;;5.80;99.90;;;;;;4991533;28;20205;-77
2020/12/21 02:33:06;;;;;;;13.37;8.83;;;5.90;99.90;;;;;;4991303;28;20275;-75
2020/12/21 02:35:34;;;;;;;14.03;8.20;;;5.80;99.90;;;;;;4991506;28;20379;-78
2020/12/21 02:38:06;;;;;;;13.03;8.40;;;5.80;99.90;;;;;;4991349;28;20239;-77
2020/12/21 02:40:34;;;;;;;8.53;6.83;;;5.80;99.90;;;;;;4991457;28;20292;-77
2020/12/21 02:43:00;;;;;;;11.60;8.23;;;5.80;99.90;;;;;;4991073;28;20209;-77
2020/12/21 02:45:27;;;;;;;10.43;7.23;;;5.80;99.90;;;;;;4991367;28;20209;-78
2020/12/21 02:47:54;;;;;;;11.90;8.47;;;5.90;99.90;;;;;;4991721;28;20212;-78
2020/12/21 02:50:20;;;;;;;11.00;8.70;;;5.80;99.90;;;;;;4991198;28;20205;-77
2020/12/21 02:52:47;;;;;;;9.03;7.13;;;5.90;99.90;;;;;;4991314;28;20267;-75
2020/12/21 02:55:14;;;;;;;9.23;7.60;;;5.90;99.90;;;;;;4990524;28;20233;-75
2020/12/21 02:57:40;;;;;;;11.20;8.57;;;6.00;99.90;;;;;;4991213;28;20230;-75
2020/12/21 03:00:08;;;;;;;11.90;8.83;;;5.90;99.90;;;;;;4990810;28;20248;-75
2020/12/21 03:02:34;;;;;;;11.80;8.20;;;6.00;99.90;;;;;;4990884;28;20232;-75
2020/12/21 03:05:00;;;;;;;10.47;7.63;;;5.90;99.90;;;;;;4991053;28;20209;-77
2020/12/21 03:07:27;;;;;;;11.10;8.17;;;5.80;99.90;;;;;;4991102;28;20212;-75
2020/12/21 03:09:53;;;;;;;13.27;8.23;;;5.80;99.90;;;;;;4991492;28;20232;-76
2020/12/21 03:12:21;;;;;;;10.03;7.80;;;5.80;99.90;;;;;;4990991;28;20213;-76
2020/12/21 03:14:47;;;;;;;10.73;8.10;;;5.80;99.90;;;;;;4991380;28;20209;-75
2020/12/21 03:17:14;;;;;;;11.13;8.43;;;5.80;99.90;;;;;;4990669;28;20216;-76
2020/12/21 03:19:40;;;;;;;10.87;8.60;;;5.80;99.90;;;;;;4991158;28;20262;-75
2020/12/21 03:22:06;;;;;;;9.03;7.37;;;5.80;99.90;;;;;;4990518;28;20711;-75
2020/12/21 03:24:33;;;;;;;9.90;6.93;;;5.90;99.90;;;;;;4990859;28;20201;-75
2020/12/21 03:26:59;;;;;;;8.97;8.00;;;5.90;99.90;;;;;;4990800;28;20565;-75
2020/12/21 03:29:27;;;;;;;8.60;7.20;;;5.80;99.90;;;;;;4990630;28;20221;-75
2020/12/21 03:31:54;;;;;;;8.67;6.40;;;5.80;99.90;;;;;;4990835;28;20282;-75
2020/12/21 03:34:20;;;;;;;9.23;6.47;;;5.80;99.90;;;;;;4992447;28;20212;-75
2020/12/21 03:36:47;;;;;;;7.77;6.40;;;5.70;99.90;;;;;;4994637;28;20610;-75
2020/12/21 03:39:13;;;;;;;8.60;6.97;;;5.70;99.90;;;;;;4994045;28;20215;-75
2020/12/21 03:41:40;;;;;;;10.63;7.27;;;5.70;99.90;;;;;;4994621;28;20275;-75
2020/12/21 03:44:06;;;;;;;9.53;7.23;;;5.70;99.90;;;;;;4994458;28;20213;-75
2020/12/21 03:46:33;;;;;;;7.17;6.33;;;5.60;99.90;;;;;;4994484;28;20209;-75
2020/12/21 03:49:00;;;;;;;10.43;6.33;;;5.60;99.90;;;;;;4993861;28;20209;-74
2020/12/21 03:51:26;;;;;;;8.90;6.60;;;5.60;99.90;;;;;;4994484;28;20220;-76
2020/12/21 03:53:53;;;;;;;7.83;6.70;;;5.60;99.90;;;;;;4994848;28;20259;-76
2020/12/21 03:56:19;;;;;;;7.03;5.93;;;5.50;99.90;;;;;;4994166;28;20240;-76
2020/12/21 03:58:45;;;;;;;8.03;6.73;;;5.50;99.90;;;;;;4994350;28;20217;-76
2020/12/21 04:01:12;;;;;;;6.37;5.37;;;5.60;99.90;;;;;;4992072;28;20275;-76
2020/12/21 04:03:39;;;;;;;8.67;5.93;;;5.70;99.90;;;;;;4994217;28;20271;-76
2020/12/21 04:06:05;;;;;;;6.53;5.67;;;5.60;99.90;;;;;;4993709;28;20685;-76
2020/12/21 04:08:32;;;;;;;9.50;7.07;;;5.40;99.90;;;;;;4993632;28;20212;-77
2020/12/21 04:10:59;;;;;;;9.17;7.00;;;5.40;99.90;;;;;;4993913;28;20213;-76
2020/12/21 04:13:26;;;;;;;7.57;6.07;;;5.40;99.90;;;;;;4994114;28;20240;-73
2020/12/21 04:15:53;;;;;;;11.33;6.10;;;5.40;99.90;;;;;;4993973;28;20743;-76
2020/12/21 04:18:19;;;;;;;6.40;5.67;;;5.40;99.90;;;;;;4993868;28;20648;-77
2020/12/21 04:20:47;;;;;;;8.77;6.70;;;5.40;99.90;;;;;;4993743;28;20215;-74
2020/12/21 04:23:13;;;;;;;8.53;6.70;;;5.50;99.90;;;;;;4993659;28;20213;-74
2020/12/21 04:25:39;;;;;;;7.93;6.37;;;5.40;99.90;;;;;;4993906;28;20660;-77
2020/12/21 04:28:06;;;;;;;6.40;5.80;;;5.40;99.90;;;;;;4993433;28;20252;-76
2020/12/21 04:30:32;;;;;;;6.17;5.30;;;5.50;99.90;;;;;;4993606;28;20212;-76
2020/12/21 04:32:59;;;;;;;9.03;7.43;;;5.30;99.90;;;;;;4993575;28;20208;-73
2020/12/21 04:35:25;;;;;;;8.17;6.40;;;5.30;99.90;;;;;;4993448;28;20232;-73
2020/12/21 04:37:53;;;;;;;7.90;7.13;;;5.20;99.90;;;;;;4993975;28;20216;-77
2020/12/21 04:40:20;;;;;;;7.37;6.67;;;5.20;99.90;;;;;;4993425;28;20587;-77
2020/12/21 04:42:48;;;;;;;8.10;7.20;;;5.10;99.90;;;;;;4993226;28;20216;-74
2020/12/21 04:45:14;;;;;;;7.67;6.40;;;5.10;99.90;;;;;;4993092;28;20217;-77
2020/12/21 04:47:43;;;;;;;11.23;6.27;;;5.10;99.90;;;;;;4993335;28;20286;-75
2020/12/21 04:50:11;;;;;;;7.67;6.73;;;5.20;99.90;;;;;;4992754;28;20205;-73
2020/12/21 04:52:47;;;;;;;7.70;5.63;;;5.30;99.90;;;;;;4993377;28;20212;-73
2020/12/21 04:55:17;;;;;;;7.80;6.13;;;5.30;99.90;;;;;;4992783;28;20615;-77
2020/12/21 04:57:57;;;;;;;6.13;5.53;;;5.40;99.90;;;;;;4993458;28;20213;-77
2020/12/21 05:00:24;;;;;;;8.73;6.73;;;5.50;99.90;;;;;;4993474;28;20201;-77
2020/12/21 05:02:51;;;;;;;7.40;5.83;;;5.50;99.90;;;;;;4993650;28;20594;-73
2020/12/21 05:05:28;;;;;;;8.10;5.93;;;5.40;99.90;;;;;;4992908;28;20205;-73
2020/12/21 05:07:55;;;;;;;9.47;6.83;;;5.40;99.90;;;;;;4993336;28;20209;-73
2020/12/21 05:10:23;;;;;;;7.67;6.50;;;5.50;99.90;;;;;;4992985;28;20676;-76
2020/12/21 05:12:59;;;;;;;8.03;6.30;;;5.40;99.90;;;;;;4993272;28;20204;-75
2020/12/21 05:15:26;;;;;;;8.03;6.83;;;5.50;99.90;;;;;;4993072;28;20228;-72
2020/12/21 05:18:03;;;;;;;11.67;8.03;;;5.50;99.90;;;;;;4993560;28;20243;-76
2020/12/21 05:20:29;;;;;;;8.17;7.43;;;5.50;99.90;;;;;;4992720;28;20567;-75
2020/12/21 05:22:56;;;;;;;14.43;6.87;;;5.40;99.90;;;;;;4992932;28;20216;-73
2020/12/21 05:25:23;;;;;;;8.83;6.50;;;5.40;99.90;;;;;;4992816;28;20216;-73
2020/12/21 05:27:50;;;;;;;9.00;7.00;;;5.40;99.90;;;;;;4992972;28;20213;-75
2020/12/21 05:30:16;;;;;;;8.33;6.80;;;5.30;99.90;;;;;;4992319;28;20217;-76
2020/12/21 05:32:42;;;;;;;8.37;6.47;;;5.30;99.90;;;;;;4992831;28;20208;-72
2020/12/21 05:35:10;;;;;;;8.00;6.73;;;5.30;99.90;;;;;;4992377;28;20236;-72
2020/12/21 05:37:39;;;;;;;7.57;6.07;;;5.40;99.90;;;;;;4992452;28;20205;-77
2020/12/21 05:40:07;;;;;;;9.77;6.00;;;5.50;99.90;;;;;;4991997;28;20217;-77
2020/12/21 05:42:36;;;;;;;7.83;5.97;;;5.50;99.90;;;;;;4992362;28;20592;-77
2020/12/21 05:45:06;;;;;;;10.60;7.87;;;5.50;99.90;;;;;;4992356;28;20299;-77
2020/12/21 05:47:32;;;;;;;10.00;7.53;;;5.40;99.90;;;;;;4992248;28;20208;-77
2020/12/21 05:50:00;;;;;;;9.27;7.63;;;5.50;99.90;;;;;;4992074;28;20208;-76
2020/12/21 05:52:29;;;;;;;9.73;7.60;;;5.60;99.90;;;;;;4992088;28;20259;-76
2020/12/21 05:54:56;;;;;;;7.57;6.87;;;5.60;99.90;;;;;;4992746;28;20205;-73
2020/12/21 05:57:27;;;;;;;7.93;7.13;;;5.60;99.90;;;;;;4991603;28;20251;-73
2020/12/21 05:59:57;;;;;;;8.77;7.43;;;5.50;99.90;;;;;;4992383;28;20205;-77
2020/12/21 06:02:25;;;;;;;10.50;7.63;;;5.60;99.90;;;;;;4992428;28;20572;-77
2020/12/21 06:05:00;;;;;;;8.10;7.30;;;5.60;99.90;;;;;;4991707;28;20692;-78
2020/12/21 06:07:30;;;;;;;8.00;7.17;;;5.70;99.90;;;;;;4992111;28;20212;-77
2020/12/21 06:09:58;;;;;;;9.30;7.27;;;5.80;99.90;;;;;;4991960;28;20275;-72
2020/12/21 06:12:28;;;;;;;7.70;6.90;;;5.90;99.90;;;;;;4991617;28;20695;-78
2020/12/21 06:15:11;;;;;;;7.43;6.20;;;5.90;99.90;;;;;;4992186;28;20294;-78
2020/12/21 06:17:38;;;;;;;7.07;6.37;;;6.00;99.90;;;;;;4992016;28;20220;-79
2020/12/21 06:20:06;;;;;;;7.10;6.40;;;6.00;99.90;;;;;;4991131;28;20247;-80
2020/12/21 06:22:32;;;;;;;7.00;6.33;;;6.00;99.90;;;;;;4991984;28;20212;-72
2020/12/21 06:24:59;;;;;;;7.27;6.57;;;5.90;99.90;;;;;;4991357;28;20205;-75
2020/12/21 06:27:25;;;;;;;9.10;5.43;;;5.80;99.90;;;;;;4991432;28;20209;-76
2020/12/21 06:29:59;;;;;;;6.23;5.57;;;5.70;99.90;;;;;;4991885;28;20221;-71
2020/12/21 06:32:32;;;;;;;10.00;6.40;;;5.80;99.90;;;;;;4991102;28;20215;-76
2020/12/21 06:35:00;;;;;;;7.90;6.30;;;5.70;99.90;;;;;;4991035;28;20755;-77
2020/12/21 06:37:27;;;;;;;8.57;6.00;;;5.80;99.90;;;;;;4991089;28;20270;-72
2020/12/21 06:40:05;;;;;;;6.60;5.67;;;5.70;99.90;;;;;;4991640;28;20590;-74
2020/12/21 06:42:32;;;;;;;6.83;5.67;;;5.70;99.90;;;;;;4991255;28;20684;-76
2020/12/21 06:44:59;;;;;;;8.00;6.03;;;5.70;99.90;;;;;;4991157;28;20208;-76
2020/12/21 06:47:27;;;;;;;6.97;6.27;;;5.60;99.90;;;;;;4991079;28;20622;-77
2020/12/21 06:49:54;;;;;;;7.03;5.53;;;5.60;99.90;;;;;;4991537;28;20212;-74
2020/12/21 06:52:21;;;;;;;6.23;5.23;;;5.60;99.90;;;;;;4991099;28;20209;-73
2020/12/21 06:54:50;;;;;;;6.23;5.47;;;5.70;99.90;;;;;;4991227;28;20208;-72
2020/12/21 06:57:16;;;;;;;5.47;4.97;;;5.60;99.90;;;;;;4990991;28;20245;-76
2020/12/21 06:59:43;;;;;;;5.53;5.03;;;5.70;99.90;;;;;;4991110;28;20213;-78
2020/12/21 07:02:12;;;;;;;7.17;4.73;;;5.80;99.90;;;;;;4991166;28;20208;-72
2020/12/21 07:04:38;;;;;;;6.30;4.80;;;5.70;99.90;;;;;;4989687;28;20216;-71
2020/12/21 07:07:06;;;;;;;6.73;5.20;;;5.80;99.90;;;;;;4990429;28;20213;-73
2020/12/21 07:09:35;;;;;;;6.73;5.13;;;5.90;99.90;;;;;;4992027;28;20209;-73
2020/12/21 07:12:04;;;;;;;7.50;6.27;;;5.80;99.90;;;;;;4993666;28;20259;-73
2020/12/21 07:14:34;;;;;;;5.30;4.57;;;5.80;99.90;;;;;;4995100;28;20209;-75
2020/12/21 07:17:06;;;;;;;7.60;5.47;;;5.80;99.90;;;;;;4994588;28;20224;-73
2020/12/21 07:19:34;;;;;;;5.77;5.27;;;5.80;99.90;;;;;;4994962;28;20216;-73
2020/12/21 07:22:03;;;;;;;7.07;5.40;;;5.80;99.90;;;;;;4993977;28;20581;-73
2020/12/21 07:24:29;;;;;;;7.10;4.97;;;5.80;99.90;;;;;;4994520;28;20672;-72
2020/12/21 07:26:56;;;;;;;6.60;5.10;;;5.90;99.90;;;;;;4994567;28;20248;-73
2020/12/21 07:29:22;;;;;;;8.10;5.77;;;5.90;99.90;;;;;;4995312;28;20201;-71
2020/12/21 07:31:49;;;;;;;6.30;4.93;;;6.10;99.90;;;;;;4994631;28;20263;-77
2020/12/21 07:34:16;;;;;;;5.83;4.37;;;6.30;99.90;;;;;;4994229;28;20240;-77
2020/12/21 07:36:44;;;;;;;6.77;4.73;;;6.30;99.90;;;;;;4995099;28;20232;-82
2020/12/21 07:39:12;;;;;;;6.47;4.93;;;6.40;99.90;;;;;;4994118;28;20627;-80
2020/12/21 07:41:41;;;;;;;7.40;4.73;;;6.40;99.90;;;;;;4994461;28;20666;-74
2020/12/21 07:44:12;;;;;;;6.27;4.60;;;7.10;99.90;;;;;;4993954;28;20699;-73
2020/12/21 07:46:43;;;;;;;4.97;4.47;;;6.90;99.90;;;;;;4992135;28;20217;-74
2020/12/21 07:49:10;;;;;;;5.90;4.17;;;6.90;99.90;;;;;;4994288;28;20208;-80
2020/12/21 07:51:39;;;;;;;5.33;4.57;;;6.90;99.90;;;;;;4994784;28;20212;-76
2020/12/21 07:54:07;;;;;;;6.70;3.83;;;6.80;99.90;;;;;;4994173;28;20212;-81
2020/12/21 07:56:34;;;;;;;5.70;3.90;;;6.90;99.90;;;;;;4994448;28;20618;-82
2020/12/21 07:59:17;;;;;;;6.87;4.10;;;6.80;99.90;;;;;;4988006;28;20692;-81
2020/12/21 08:01:46;;;;;;;4.13;3.70;;;6.60;99.90;;;;;;4988631;28;20201;-77
2020/12/21 08:04:18;;;;;;;5.37;3.90;;;6.70;99.90;;;;;;4994269;28;20213;-81
2020/12/21 08:06:46;;;;;;;3.50;2.80;;;6.80;99.90;;;;;;4994495;28;20247;-81
2020/12/21 08:09:14;;;;;;;5.20;3.63;;;6.90;99.90;;;;;;4994297;28;20213;-79
2020/12/21 08:11:40;;;;;;;8.70;3.63;;;7.00;99.90;;;;;;4994922;28;20259;-81
2020/12/21 08:14:08;;;;;;;5.87;3.13;;;7.10;99.90;;;;;;4994279;28;20208;-80
2020/12/21 08:16:35;;;;;;;6.23;3.70;;;7.20;99.90;;;;;;4994522;28;20228;-74
2020/12/21 08:19:02;;;;;;;6.00;4.47;;;7.30;99.90;;;;;;4994387;28;20220;-82
2020/12/21 08:21:28;;;;;;;5.57;3.37;;;7.40;99.90;;;;;;4994160;28;20215;-80
2020/12/21 08:23:57;;;;;;;4.83;3.67;;;7.50;99.90;;;;;;4994350;28;20216;-73
2020/12/21 08:26:25;;;;;;;5.10;3.67;;;7.60;99.90;;;;;;4994879;28;20231;-82
2020/12/21 08:28:52;;;;;;;6.37;4.30;;;7.70;99.90;;;;;;4991525;28;20259;-82
2020/12/21 08:31:20;;;;;;;8.20;4.77;;;7.80;99.90;;;;;;4993371;28;20213;-72
2020/12/21 08:34:04;;;;;;;6.07;3.50;;;7.90;99.90;;;;;;4993510;28;20224;-75
2020/12/21 08:36:32;;;;;;;5.90;4.10;;;8.00;99.90;;;;;;4993590;28;20233;-82
2020/12/21 08:39:07;;;;;;;7.13;4.00;;;8.10;99.90;;;;;;4993284;28;20237;-79
2020/12/21 08:41:41;;;;;;;7.77;4.73;;;8.20;99.90;;;;;;4994029;28;20200;-77
2020/12/21 08:44:11;;;;;;;9.00;4.13;;;8.30;99.90;;;;;;4993464;28;20216;-75
2020/12/21 08:46:44;;;;;;;7.00;4.57;;;8.40;99.90;;;;;;4990065;28;20212;-79
2020/12/21 08:49:10;;;;;;;5.23;4.50;;;8.40;99.90;;;;;;4989953;28;20761;-74
2020/12/21 08:51:37;;;;;;;5.87;4.43;;;8.40;99.90;;;;;;4993600;28;20274;-82
2020/12/21 08:54:03;;;;;;;6.43;3.63;;;8.50;99.90;;;;;;4992992;28;20676;-83
2020/12/21 08:56:30;;;;;;;4.20;3.77;;;8.60;99.90;;;;;;4993456;28;20724;-80
2020/12/21 08:58:57;;;;;;;7.70;3.70;;;8.80;99.90;;;;;;4993611;28;20212;-78
2020/12/21 09:01:23;;;;;;;5.30;4.10;;;9.20;99.90;;;;;;4993703;28;20205;-83
2020/12/21 09:03:50;;;;;;;4.83;3.83;;;9.90;99.90;;;;;;4993164;28;20592;-75
2020/12/21 09:06:21;;;;;;;11.60;4.53;;;9.80;99.90;;;;;;4992362;28;20297;-79
2020/12/21 09:08:47;;;;;;;5.57;4.40;;;9.80;99.90;;;;;;4993487;28;20224;-76
2020/12/21 09:11:18;;;;;;;5.67;4.20;;;10.00;99.90;;;;;;4992656;28;20209;-85
2020/12/21 09:13:44;;;;;;;4.30;3.97;;;10.30;99.90;;;;;;4993350;28;20292;-81
2020/12/21 09:16:12;;;;;;;5.23;4.20;;;10.30;99.90;;;;;;4993045;28;20240;-84
2020/12/21 09:18:39;;;;;;;5.30;4.37;;;10.40;99.90;;;;;;4993035;28;20259;-83
2020/12/21 09:21:05;;;;;;;7.37;5.57;;;10.60;99.90;;;;;;4992327;28;20209;-80
2020/12/21 09:23:33;;;;;;;6.63;4.67;;;10.80;99.90;;;;;;4992093;28;20213;-78
2020/12/21 09:25:59;;;;;;;5.70;3.73;;;11.40;99.90;;;;;;4993096;28;20211;-83
2020/12/21 09:28:26;;;;;;;5.87;4.60;;;11.20;99.90;;;;;;4992680;28;20209;-75
2020/12/21 09:30:52;;;;;;;4.67;3.93;;;10.90;99.90;;;;;;4991403;28;20566;-84
2020/12/21 09:33:19;;;;;;;5.83;4.60;;;10.80;99.90;;;;;;4991590;28;20680;-75
2020/12/21 09:35:46;;;;;;;7.70;4.50;;;10.50;99.90;;;;;;4991278;28;20283;-84
2020/12/21 09:38:12;;;;;;;7.73;4.37;;;10.50;99.90;;;;;;4992026;28;20209;-85
2020/12/21 09:40:39;;;;;;;4.60;3.87;;;10.20;99.90;;;;;;4991171;28;20205;-77
2020/12/21 09:43:05;;;;;;;7.47;4.50;;;10.30;99.90;;;;;;4989995;28;20267;-75
2020/12/21 09:45:31;;;;;;;4.83;4.17;;;10.40;99.90;;;;;;4992446;28;20244;-76
2020/12/21 09:47:58;;;;;;;5.97;4.07;;;10.40;99.90;;;;;;4991102;28;20683;-78
2020/12/21 09:50:25;;;;;;;8.83;5.00;;;10.60;99.90;;;;;;4992574;28;20200;-76
2020/12/21 09:52:52;;;;;;;7.40;4.20;;;10.80;99.90;;;;;;4992634;28;20590;-79
2020/12/21 09:55:18;;;;;;;9.13;5.27;;;11.10;99.90;;;;;;4991776;28;20205;-83
2020/12/21 09:57:44;;;;;;;7.17;4.20;;;11.20;99.90;;;;;;4992407;28;20585;-84
2020/12/21 10:00:11;;;;;;;16.13;5.13;;;11.20;99.90;;;;;;4991856;28;20205;-83
2020/12/21 10:02:37;;;;;;;9.67;4.90;;;11.20;99.90;;;;;;4989130;28;20209;-77
2020/12/21 10:05:04;;;;;;;9.10;3.83;;;11.30;99.90;;;;;;4991452;28;20217;-87
2020/12/21 10:07:33;;;;;;;8.47;4.17;;;11.20;99.90;;;;;;4992070;28;20291;-86
2020/12/21 10:09:59;;;;;;;8.67;3.73;;;11.20;99.90;;;;;;4991960;28;20562;-79
2020/12/21 10:12:26;;;;;;;6.07;4.07;;;11.30;99.90;;;;;;4992491;28;20212;-80
2020/12/21 10:14:52;;;;;;;7.63;3.87;;;11.20;99.90;;;;;;4992574;28;20212;-83
2020/12/21 10:17:19;;;;;;;9.60;4.33;;;11.60;99.90;;;;;;4992079;28;20233;-85
2020/12/21 10:19:45;;;;;;;5.50;3.73;;;11.90;99.90;;;;;;4992309;28;20267;-85
2020/12/21 10:22:12;;;;;;;6.27;4.00;;;12.10;99.90;;;;;;4991550;28;20205;-85
2020/12/21 10:24:39;;;;;;;6.03;3.93;;;12.00;99.90;;;;;;4992518;28;20235;-85
2020/12/21 10:27:05;;;;;;;5.17;4.43;;;12.30;99.90;;;;;;4992069;28;20216;-88
2020/12/21 10:29:32;;;;;;;7.03;4.20;;;12.30;99.90;;;;;;4992042;28;20200;-87
2020/12/21 10:31:59;;;;;;;4.33;3.87;;;12.00;99.90;;;;;;4991477;28;20209;-82
2020/12/21 10:34:26;;;;;;;5.67;3.70;;;11.90;99.90;;;;;;4992026;28;20228;-78
2020/12/21 10:36:53;;;;;;;6.67;2.87;;;11.80;99.90;;;;;;4984919;28;20264;-77
2020/12/21 10:39:20;;;;;;;5.80;2.97;;;11.70;99.90;;;;;;4990953;28;20215;-77
2020/12/21 10:41:48;;;;;;;6.83;3.93;;;11.60;99.90;;;;;;4990883;28;20213;-81
2020/12/21 10:44:15;;;;;;;5.00;3.40;;;11.60;99.90;;;;;;4990277;28;20751;-81
2020/12/21 10:46:42;;;;;;;6.77;2.33;;;11.80;99.90;;;;;;4987644;28;20669;-81
2020/12/21 10:49:09;;;;;;;5.53;2.67;;;11.90;99.90;;;;;;4987402;28;20216;-85
2020/12/21 10:51:36;;;;;;;8.20;3.20;;;12.20;99.90;;;;;;4990402;28;20212;-81
2020/12/21 10:54:04;;;;;;;6.38;2.60;;;12.40;99.90;;;;;;4988434;28;20212;-80
2020/12/21 10:56:30;;;;;;;7.30;3.38;;;12.40;99.90;;;;;;4990411;28;20236;-84
2020/12/21 10:58:58;;;;;;;4.22;2.05;;;12.50;99.90;;;;;;4992354;28;20205;-79
2020/12/21 11:01:24;;;;;;;5.70;3.38;;;12.70;99.90;;;;;;4990320;28;20208;-79
2020/12/21 11:03:51;;;;;;;6.65;2.65;;;13.00;99.90;;;;;;4991154;28;20216;-84
2020/12/21 11:06:22;;;;;;;5.68;3.00;;;13.10;99.90;;;;;;4990835;28;20209;-80
2020/12/21 11:08:48;;;;;;;3.85;2.85;;;13.20;99.90;;;;;;4990948;28;20712;-82
2020/12/21 11:11:15;;;;;;;4.43;2.50;;;13.10;99.90;;;;;;4991457;28;20275;-80
2020/12/21 11:13:42;;;;;;;4.72;2.97;;;13.00;99.90;;;;;;4990723;28;20220;-79
2020/12/21 11:16:11;;;;;;;6.22;3.45;;;12.90;99.90;;;;;;4991016;28;20272;-82
2020/12/21 11:18:37;;;;;;;4.70;3.83;;;12.90;99.90;;;;;;4990894;28;20205;-81
2020/12/21 11:21:04;;;;;;;6.90;3.47;;;12.80;99.90;;;;;;4991167;28;20213;-81
2020/12/21 11:23:30;;;;;;;6.00;3.05;;;12.70;99.90;;;;;;4990987;28;20217;-85
2020/12/21 11:25:57;;;;;;;8.75;4.10;;;12.70;99.90;;;;;;4984889;28;20224;-79
2020/12/21 11:28:24;;;;;;;5.70;3.58;;;12.80;99.90;;;;;;4986989;28;20212;-80
2020/12/21 11:30:50;;;;;;;6.95;3.75;;;12.80;99.90;;;;;;4991051;28;20217;-80
2020/12/21 11:33:18;;;;;;;7.88;3.60;;;12.90;99.90;;;;;;4987372;28;20532;-79
2020/12/21 11:35:44;;;;;;;6.15;3.40;;;13.00;99.90;;;;;;4988450;28;20236;-78
2020/12/21 11:38:10;;;;;;;4.95;3.30;;;13.20;99.90;;;;;;4988427;28;20209;-79
2020/12/21 11:40:37;;;;;;;7.50;3.55;;;13.30;99.90;;;;;;4989605;28;20231;-79
2020/12/21 11:43:04;;;;;;;4.00;3.17;;;13.30;99.90;;;;;;4988215;28;20252;-84
2020/12/21 11:45:30;;;;;;;8.20;3.95;;;13.30;99.90;;;;;;4988352;28;20252;-83
2020/12/21 11:47:57;;;;;;;9.05;3.20;;;13.40;99.90;;;;;;4990523;28;20209;-79
2020/12/21 11:50:25;;;;;;;5.95;3.67;;;13.30;99.90;;;;;;4992179;28;20212;-87
2020/12/21 11:52:52;;;;;;;6.03;2.78;;;13.20;99.90;;;;;;4991198;28;20212;-83
2020/12/21 11:55:18;;;;;;;6.78;3.53;;;13.20;99.90;;;;;;4991454;28;20245;-86
2020/12/21 11:57:45;;;;;;;6.13;3.28;;;13.10;99.90;;;;;;4991172;28;20584;-86
2020/12/21 12:00:12;;;;;;;7.82;3.03;;;13.20;99.90;;;;;;4994733;28;20216;-86
2020/12/21 12:02:38;;;;;;;3.95;3.33;;;13.20;99.90;;;;;;4990391;28;20208;-86
2020/12/21 12:05:05;;;;;;;6.68;3.42;;;13.20;99.90;;;;;;4994516;28;20285;-79
2020/12/21 12:07:32;;;;;;;5.00;3.10;;;13.00;99.90;;;;;;4994594;28;20268;-81
2020/12/21 12:09:59;;;;;;;5.50;3.13;;;12.50;99.90;;;;;;4993869;28;20217;-83
2020/12/21 12:12:25;;;;;;;4.32;3.30;;;12.60;99.90;;;;;;4994884;28;20208;-77
2020/12/21 12:14:52;;;;;;;8.27;4.00;;;12.80;99.90;;;;;;4992743;28;20213;-85
2020/12/21 12:17:18;;;;;;;6.18;3.20;;;12.90;99.90;;;;;;4995825;28;20366;-80
2020/12/21 12:19:45;;;;;;;9.00;4.95;;;13.10;99.90;;;;;;4998967;28;20213;-84
2020/12/21 12:22:11;;;;;;;5.13;4.07;;;13.40;99.90;;;;;;4993899;28;20690;-84
2020/12/21 12:24:39;;;;;;;4.97;3.63;;;13.50;99.90;;;;;;4994471;28;20204;-85
2020/12/21 12:27:05;;;;;;;4.97;3.97;;;13.60;99.90;;;;;;4994554;28;20216;-86
2020/12/21 12:29:32;;;;;;;6.07;3.45;;;13.50;99.90;;;;;;4994867;28;20235;-86
2020/12/21 12:31:58;;;;;;;6.03;3.38;;;13.40;99.90;;;;;;4994749;28;20219;-85
2020/12/21 12:34:25;;;;;;;6.57;3.55;;;13.50;99.90;;;;;;4995003;28;20213;-84
2020/12/21 12:36:52;;;;;;;4.63;4.22;;;13.70;99.90;;;;;;4994765;28;20232;-85
2020/12/21 12:39:18;;;;;;;7.15;4.13;;;13.80;99.90;;;;;;4994381;28;20610;-85
2020/12/21 12:41:46;;;;;;;6.13;4.30;;;13.70;99.90;;;;;;4994737;28;20569;-86
2020/12/21 12:44:13;;;;;;;7.10;4.93;;;13.70;99.90;;;;;;4993998;28;20220;-86
2020/12/21 12:46:40;;;;;;;7.53;3.70;;;13.80;99.90;;;;;;4994820;28;20209;-84
2020/12/21 12:49:07;;;;;;;6.82;3.65;;;13.60;99.90;;;;;;4994435;28;20208;-85
2020/12/21 12:51:36;;;;;;;5.63;2.83;;;13.90;99.90;;;;;;4992801;28;20216;-86